Time;durP1;ratioP1;P1;durP2;ratioP2;P2;SDS_P1;SDS_P2;PMS_P1;PMS_P2;Temp;Humidity;BMP_temperature;BMP_pressure;BME280_temperature;BME280_humidity;BME280_pressure;Samples;Min_cycle;Max_cycle;Signal;HPM_P1;HPM_P2
2023/01/06 00:00:12;;;;;;;23.63;10.97;;;;;;;;;;4936602;29;20268;-87
2023/01/06 00:02:37;;;;;;;17.93;9.90;;;;;;;;;;4972146;28;20211;-86
2023/01/06 00:05:03;;;;;;;17.03;9.50;;;;;;;;;;4958584;28;20238;-85
2023/01/06 00:07:31;;;;;;;20.40;9.50;;;;;;;;;;4944338;28;20286;-88
2023/01/06 00:09:56;;;;;;;20.00;10.63;;;;;;;;;;4935705;29;20219;-88
2023/01/06 00:12:22;;;;;;;20.70;10.73;;;;;;;;;;4934940;29;20621;-87
2023/01/06 00:14:47;;;;;;;19.53;9.93;;;;;;;;;;4951296;29;20604;-88
2023/01/06 00:17:13;;;;;;;20.87;10.50;;;;;;;;;;4917901;29;20223;-87
2023/01/06 00:19:39;;;;;;;18.07;10.50;;;;;;;;;;4934642;29;20709;-87
2023/01/06 00:22:07;;;;;;;24.27;10.73;;;;;;;;;;4934359;29;20246;-87
2023/01/06 00:24:35;;;;;;;25.30;11.40;;;;;;;;;;4934936;29;20236;-87
2023/01/06 00:27:00;;;;;;;18.80;11.57;;;;;;;;;;4935147;29;20231;-87
2023/01/06 00:29:26;;;;;;;20.37;11.07;;;;;;;;;;4935269;29;20219;-88
2023/01/06 00:31:54;;;;;;;22.60;11.57;;;;;;;;;;4951931;29;20291;-86
2023/01/06 00:34:22;;;;;;;22.93;10.80;;;;;;;;;;4938544;29;20231;-85
2023/01/06 00:36:52;;;;;;;19.13;11.83;;;;;;;;;;4926865;29;20311;-87
2023/01/06 00:39:17;;;;;;;22.93;11.77;;;;;;;;;;4935347;29;20721;-87
2023/01/06 00:42:03;;;;;;;18.47;11.37;;;;;;;;;;4919332;29;20298;-86
2023/01/06 00:44:35;;;;;;;16.07;11.17;;;;;;;;;;4921013;29;20242;-86
2023/01/06 00:47:04;;;;;;;19.07;12.23;;;;;;;;;;4933828;29;20281;-86
2023/01/06 00:49:35;;;;;;;18.77;12.93;;;;;;;;;;4906378;29;20709;-85
2023/01/06 00:52:00;;;;;;;18.47;12.20;;;;;;;;;;4919044;29;20306;-87
2023/01/06 00:54:29;;;;;;;17.03;11.23;;;;;;;;;;4918906;29;20247;-86
2023/01/06 00:56:57;;;;;;;17.23;11.27;;;;;;;;;;4938694;29;20222;-88
2023/01/06 00:59:23;;;;;;;18.27;12.07;;;;;;;;;;4935033;28;20230;-85
2023/01/06 01:01:50;;;;;;;17.30;11.33;;;;;;;;;;4935548;29;20243;-86
2023/01/06 01:04:17;;;;;;;19.47;10.93;;;;;;;;;;4935128;28;20609;-86
2023/01/06 01:06:43;;;;;;;16.13;11.40;;;;;;;;;;4917550;29;20314;-86
2023/01/06 01:09:12;;;;;;;19.50;10.80;;;;;;;;;;4932727;29;20228;-87
2023/01/06 01:14:22;;;;;;;21.10;10.80;;;;;;;;;;4932730;29;20259;-86
2023/01/06 01:16:47;;;;;;;17.60;11.40;;;;;;;;;;4920126;29;20223;-86
2023/01/06 01:19:15;;;;;;;20.10;10.87;;;;;;;;;;4935017;28;20677;-86
2023/01/06 01:21:41;;;;;;;14.27;9.83;;;;;;;;;;4918079;29;20314;-86
2023/01/06 01:24:09;;;;;;;15.90;10.87;;;;;;;;;;4915875;29;20239;-87
2023/01/06 01:26:34;;;;;;;16.70;10.33;;;;;;;;;;4936705;29;20227;-86
2023/01/06 01:29:00;;;;;;;15.87;10.30;;;;;;;;;;4934591;29;20672;-87
2023/01/06 01:31:26;;;;;;;19.60;10.90;;;;;;;;;;4933032;29;20231;-86
2023/01/06 01:33:51;;;;;;;20.07;11.10;;;;;;;;;;4933844;29;20241;-85
2023/01/06 01:36:19;;;;;;;15.80;10.67;;;;;;;;;;4933118;29;20242;-86
2023/01/06 01:38:44;;;;;;;18.03;11.33;;;;;;;;;;4934709;29;20235;-86
2023/01/06 01:41:16;;;;;;;13.03;9.53;;;;;;;;;;4935583;29;20294;-92
2023/01/06 01:43:45;;;;;;;13.87;10.03;;;;;;;;;;4922512;29;20662;-86
2023/01/06 01:46:16;;;;;;;17.37;10.70;;;;;;;;;;4932845;29;20374;-86
2023/01/06 01:48:42;;;;;;;15.90;10.53;;;;;;;;;;4934725;29;20238;-86
2023/01/06 01:51:12;;;;;;;13.73;10.20;;;;;;;;;;4942588;29;20219;-88
2023/01/06 01:53:40;;;;;;;15.40;10.40;;;;;;;;;;4918771;29;20373;-88
2023/01/06 01:56:08;;;;;;;14.87;10.27;;;;;;;;;;4935128;29;20234;-87
2023/01/06 01:58:44;;;;;;;12.23;9.77;;;;;;;;;;4936995;29;20363;-87
2023/01/06 02:01:13;;;;;;;13.40;10.13;;;;;;;;;;4939868;29;20613;-88
2023/01/06 02:03:40;;;;;;;12.73;9.47;;;;;;;;;;4936239;29;20255;-86
2023/01/06 02:06:14;;;;;;;16.67;10.50;;;;;;;;;;4935135;29;20785;-89
2023/01/06 02:08:43;;;;;;;13.13;9.63;;;;;;;;;;4934017;29;20230;-87
2023/01/06 02:11:14;;;;;;;11.23;9.73;;;;;;;;;;4947441;29;20242;-86
2023/01/06 02:13:43;;;;;;;12.70;9.70;;;;;;;;;;4933461;29;20235;-85
2023/01/06 02:16:23;;;;;;;14.13;9.33;;;;;;;;;;4934175;29;20239;-84
2023/01/06 02:19:01;;;;;;;10.13;8.50;;;;;;;;;;4950528;29;20227;-87
2023/01/06 02:21:32;;;;;;;11.73;8.20;;;;;;;;;;4933992;29;20645;-86
2023/01/06 02:24:43;;;;;;;9.20;8.20;;;;;;;;;;4934692;29;20232;-87
2023/01/06 02:27:30;;;;;;;10.17;8.37;;;;;;;;;;4886272;29;20695;-89
2023/01/06 02:30:20;;;;;;;10.10;8.80;;;;;;;;;;4939030;29;20232;-88
2023/01/06 02:32:58;;;;;;;10.63;9.60;;;;;;;;;;4938515;29;20306;-88
2023/01/06 02:35:37;;;;;;;11.33;9.60;;;;;;;;;;4940222;29;20613;-87
2023/01/06 02:38:06;;;;;;;11.63;10.43;;;;;;;;;;4946618;28;20315;-89
2023/01/06 02:40:49;;;;;;;12.13;10.93;;;;;;;;;;4952192;29;20255;-88
2023/01/06 02:43:24;;;;;;;11.47;10.37;;;;;;;;;;4972679;29;20243;-86
2023/01/06 02:45:54;;;;;;;15.13;11.47;;;;;;;;;;4957199;28;20227;-90
2023/01/06 02:49:06;;;;;;;14.17;12.47;;;;;;;;;;4949167;28;20323;-89
2023/01/06 02:52:09;;;;;;;13.50;12.10;;;;;;;;;;4910494;29;20227;-89
2023/01/06 02:54:57;;;;;;;14.07;12.53;;;;;;;;;;4940295;29;20236;-87
2023/01/06 02:57:52;;;;;;;17.63;13.13;;;;;;;;;;4956810;29;20231;-88
2023/01/06 03:00:34;;;;;;;14.63;13.13;;;;;;;;;;4937469;29;20223;-90
2023/01/06 03:03:13;;;;;;;13.73;12.23;;;;;;;;;;4936012;28;20711;-88
2023/01/06 03:05:42;;;;;;;15.83;12.70;;;;;;;;;;4906143;29;20278;-88
2023/01/06 03:08:13;;;;;;;15.43;12.97;;;;;;;;;;4919397;29;20621;-91
2023/01/06 03:10:39;;;;;;;15.07;12.53;;;;;;;;;;4939891;29;20632;-90
2023/01/06 03:13:16;;;;;;;16.90;12.60;;;;;;;;;;4933933;29;20220;-86
2023/01/06 03:15:45;;;;;;;14.50;11.60;;;;;;;;;;4936296;29;20231;-87
2023/01/06 03:18:15;;;;;;;12.93;11.33;;;;;;;;;;4935798;29;20590;-86
2023/01/06 03:20:41;;;;;;;15.40;12.03;;;;;;;;;;4942043;29;20227;-86
2023/01/06 03:23:07;;;;;;;14.33;11.40;;;;;;;;;;4914384;29;20220;-87
2023/01/06 03:25:32;;;;;;;13.70;11.17;;;;;;;;;;4869813;29;20235;-88
2023/01/06 03:28:02;;;;;;;14.60;11.93;;;;;;;;;;4919236;29;20260;-88
2023/01/06 03:30:38;;;;;;;12.77;11.40;;;;;;;;;;4937046;29;20211;-88
2023/01/06 03:33:23;;;;;;;14.13;11.83;;;;;;;;;;4936924;29;20231;-86
2023/01/06 03:36:21;;;;;;;13.93;11.40;;;;;;;;;;4945402;28;20310;-87
2023/01/06 03:39:07;;;;;;;12.37;11.07;;;;;;;;;;4928284;29;20230;-86
2023/01/06 03:44:28;;;;;;;18.07;11.97;;;;;;;;;;4927866;29;20695;-88
2023/01/06 03:46:56;;;;;;;14.33;11.77;;;;;;;;;;4963235;28;20274;-89
2023/01/06 03:49:28;;;;;;;12.80;10.80;;;;;;;;;;4945692;29;20824;-87
2023/01/06 03:51:57;;;;;;;12.53;11.20;;;;;;;;;;4947432;29;20709;-86
2023/01/06 03:54:53;;;;;;;14.17;11.07;;;;;;;;;;4932446;29;20254;-87
2023/01/06 03:57:32;;;;;;;12.73;11.23;;;;;;;;;;4939880;28;20223;-87
2023/01/06 04:00:04;;;;;;;13.80;11.23;;;;;;;;;;4960202;29;20691;-89
2023/01/06 04:02:38;;;;;;;13.33;10.47;;;;;;;;;;4941319;29;20250;-86
2023/01/06 04:05:14;;;;;;;12.73;10.90;;;;;;;;;;4941414;29;20239;-86
2023/01/06 04:07:42;;;;;;;15.17;11.53;;;;;;;;;;4938983;29;20359;-88
2023/01/06 04:10:08;;;;;;;14.93;11.27;;;;;;;;;;4940677;29;20231;-86
2023/01/06 04:12:40;;;;;;;12.03;10.60;;;;;;;;;;4939098;29;20227;-90
2023/01/06 04:15:11;;;;;;;12.47;10.83;;;;;;;;;;4939301;29;20230;-88
2023/01/06 04:17:38;;;;;;;12.70;11.03;;;;;;;;;;4938440;29;20228;-88
2023/01/06 04:20:08;;;;;;;12.77;10.23;;;;;;;;;;4936428;29;20232;-87
2023/01/06 04:22:39;;;;;;;15.00;11.33;;;;;;;;;;4940528;28;21006;-88
2023/01/06 04:25:05;;;;;;;12.13;10.57;;;;;;;;;;4917925;29;20714;-88
2023/01/06 04:27:31;;;;;;;12.00;10.73;;;;;;;;;;4895806;29;20227;-87
2023/01/06 04:29:57;;;;;;;12.80;10.70;;;;;;;;;;4908706;29;20224;-89
2023/01/06 04:32:23;;;;;;;14.77;11.40;;;;;;;;;;4903274;29;20287;-88
2023/01/06 04:34:50;;;;;;;12.27;9.93;;;;;;;;;;4885875;29;20777;-87
2023/01/06 04:37:17;;;;;;;11.40;9.77;;;;;;;;;;4898234;29;20228;-87
2023/01/06 04:39:42;;;;;;;11.83;9.77;;;;;;;;;;4902006;29;20221;-87
2023/01/06 04:42:08;;;;;;;10.77;9.67;;;;;;;;;;4887485;29;20228;-87
2023/01/06 04:44:34;;;;;;;12.00;9.90;;;;;;;;;;4874627;29;20228;-86
2023/01/06 04:47:06;;;;;;;10.80;9.53;;;;;;;;;;4905561;29;20243;-84
2023/01/06 04:49:32;;;;;;;11.33;9.97;;;;;;;;;;4869305;29;20681;-83
2023/01/06 04:51:58;;;;;;;10.90;9.80;;;;;;;;;;4884839;29;20236;-84
2023/01/06 04:54:23;;;;;;;10.57;9.47;;;;;;;;;;4899438;29;20235;-85
2023/01/06 04:56:51;;;;;;;11.70;9.97;;;;;;;;;;4900769;29;20228;-83
2023/01/06 04:59:19;;;;;;;11.47;9.97;;;;;;;;;;4921736;29;20985;-87
2023/01/06 05:01:45;;;;;;;11.47;10.37;;;;;;;;;;4884340;29;20231;-84
2023/01/06 05:04:15;;;;;;;11.63;10.47;;;;;;;;;;4886621;29;20232;-86
2023/01/06 05:06:40;;;;;;;12.03;10.17;;;;;;;;;;4908276;29;20250;-82
2023/01/06 05:09:10;;;;;;;11.87;10.70;;;;;;;;;;4937713;29;20235;-85
2023/01/06 05:11:38;;;;;;;12.03;10.83;;;;;;;;;;4940735;29;20239;-85
2023/01/06 05:14:04;;;;;;;14.97;10.27;;;;;;;;;;4952021;29;20234;-85
2023/01/06 05:16:31;;;;;;;10.47;9.53;;;;;;;;;;4936570;29;20235;-87
2023/01/06 05:19:01;;;;;;;11.70;10.40;;;;;;;;;;4913749;29;21054;-84
2023/01/06 05:21:27;;;;;;;11.90;10.70;;;;;;;;;;4889562;29;20223;-87
2023/01/06 05:23:53;;;;;;;11.97;10.87;;;;;;;;;;4909712;29;20604;-84
2023/01/06 05:26:26;;;;;;;11.20;10.10;;;;;;;;;;4905261;29;20535;-86
2023/01/06 05:28:52;;;;;;;11.87;10.67;;;;;;;;;;4902090;29;20327;-85
2023/01/06 05:31:17;;;;;;;13.53;11.13;;;;;;;;;;4883826;29;20254;-86
2023/01/06 05:33:43;;;;;;;11.63;10.50;;;;;;;;;;4916621;29;20224;-87
2023/01/06 05:36:11;;;;;;;11.90;10.80;;;;;;;;;;4901436;29;20228;-86
2023/01/06 05:38:36;;;;;;;13.40;10.67;;;;;;;;;;4903484;29;20231;-86
2023/01/06 05:41:02;;;;;;;15.83;12.53;;;;;;;;;;4901225;29;20707;-84
2023/01/06 05:43:27;;;;;;;13.37;12.07;;;;;;;;;;4914155;29;20265;-85
2023/01/06 05:45:53;;;;;;;12.80;11.50;;;;;;;;;;4923342;29;20604;-83
2023/01/06 05:48:25;;;;;;;13.20;11.90;;;;;;;;;;4935847;29;20231;-82
2023/01/06 05:50:51;;;;;;;12.30;11.00;;;;;;;;;;4941145;29;20223;-82
2023/01/06 05:53:20;;;;;;;13.47;11.93;;;;;;;;;;4921035;29;20227;-86
2023/01/06 05:55:46;;;;;;;13.50;12.27;;;;;;;;;;4935441;29;20223;-83
2023/01/06 05:58:14;;;;;;;12.77;11.67;;;;;;;;;;4935342;29;20227;-83
2023/01/06 06:00:42;;;;;;;13.73;12.37;;;;;;;;;;4938519;29;20208;-86
2023/01/06 06:03:07;;;;;;;13.53;12.23;;;;;;;;;;4940161;29;20226;-85
2023/01/06 06:05:33;;;;;;;13.47;12.27;;;;;;;;;;4941089;29;20254;-82
2023/01/06 06:07:58;;;;;;;14.03;12.30;;;;;;;;;;4956807;29;20234;-87
2023/01/06 06:10:24;;;;;;;15.07;13.47;;;;;;;;;;4938446;29;20614;-84
2023/01/06 06:12:51;;;;;;;14.07;12.70;;;;;;;;;;4940599;29;20219;-85
2023/01/06 06:15:17;;;;;;;14.27;12.80;;;;;;;;;;4954684;29;20752;-83
2023/01/06 06:17:45;;;;;;;15.40;13.90;;;;;;;;;;4925736;29;20231;-83
2023/01/06 06:20:10;;;;;;;14.93;13.53;;;;;;;;;;4942121;29;20230;-86
2023/01/06 06:22:40;;;;;;;14.73;13.37;;;;;;;;;;4960021;29;20234;-85
2023/01/06 06:25:08;;;;;;;14.07;12.83;;;;;;;;;;4967807;29;20469;-85
2023/01/06 06:27:37;;;;;;;14.20;12.93;;;;;;;;;;4964761;28;20242;-84
2023/01/06 06:30:04;;;;;;;14.67;12.77;;;;;;;;;;4951568;28;20274;-84
2023/01/06 06:32:30;;;;;;;14.07;12.70;;;;;;;;;;4934976;29;20232;-84
2023/01/06 06:34:55;;;;;;;15.30;14.00;;;;;;;;;;4956874;29;20229;-86
2023/01/06 06:37:21;;;;;;;14.37;12.93;;;;;;;;;;4942696;29;20227;-84
2023/01/06 06:39:46;;;;;;;14.00;12.80;;;;;;;;;;4942811;29;20239;-84
2023/01/06 06:42:12;;;;;;;16.33;12.70;;;;;;;;;;4958437;29;20226;-83
2023/01/06 06:44:38;;;;;;;14.20;12.80;;;;;;;;;;4957679;29;20246;-84
2023/01/06 06:47:03;;;;;;;13.40;12.20;;;;;;;;;;4973504;28;20239;-83
2023/01/06 06:49:29;;;;;;;22.53;16.03;;;;;;;;;;4956667;29;20223;-83
2023/01/06 06:51:56;;;;;;;14.80;11.47;;;;;;;;;;4957044;28;20215;-83
2023/01/06 06:54:24;;;;;;;12.23;11.13;;;;;;;;;;4952275;29;20228;-83
2023/01/06 06:56:50;;;;;;;13.10;11.80;;;;;;;;;;4940081;29;20208;-84
2023/01/06 06:59:15;;;;;;;14.13;11.50;;;;;;;;;;4927911;29;20235;-87
2023/01/06 07:01:41;;;;;;;12.27;11.03;;;;;;;;;;4941131;29;20234;-86
2023/01/06 07:04:07;;;;;;;11.97;10.87;;;;;;;;;;4940336;29;20242;-87
2023/01/06 07:06:36;;;;;;;11.00;9.63;;;;;;;;;;4945700;29;20707;-85
2023/01/06 07:09:09;;;;;;;12.20;10.97;;;;;;;;;;4947228;28;20291;-83
2023/01/06 07:11:37;;;;;;;11.07;9.97;;;;;;;;;;4950214;28;20581;-84
2023/01/06 07:14:02;;;;;;;11.10;10.03;;;;;;;;;;4937484;29;20220;-84
2023/01/06 07:16:29;;;;;;;11.27;10.27;;;;;;;;;;4924678;29;20223;-86
2023/01/06 07:18:57;;;;;;;11.97;10.17;;;;;;;;;;4940109;29;20243;-86
2023/01/06 07:21:22;;;;;;;11.30;10.30;;;;;;;;;;4926407;28;20235;-83
2023/01/06 07:23:50;;;;;;;11.60;10.47;;;;;;;;;;4931272;29;20290;-86
2023/01/06 07:26:16;;;;;;;10.60;9.70;;;;;;;;;;4942662;29;20227;-84
2023/01/06 07:28:41;;;;;;;10.13;9.33;;;;;;;;;;4947464;29;20237;-84
2023/01/06 07:31:09;;;;;;;10.07;9.00;;;;;;;;;;4939411;29;20535;-85
2023/01/06 07:33:35;;;;;;;8.67;7.23;;;;;;;;;;4941434;29;20324;-84
2023/01/06 07:36:00;;;;;;;9.70;8.80;;;;;;;;;;4942748;29;20700;-86
2023/01/06 07:38:28;;;;;;;9.47;8.47;;;;;;;;;;4925474;29;20225;-84
2023/01/06 07:40:59;;;;;;;8.57;7.77;;;;;;;;;;4946670;29;20322;-85
2023/01/06 07:43:24;;;;;;;7.23;6.67;;;;;;;;;;4940357;29;20227;-86
2023/01/06 07:45:52;;;;;;;7.60;6.97;;;;;;;;;;4926186;29;20227;-82
2023/01/06 07:48:17;;;;;;;7.27;6.57;;;;;;;;;;4911328;28;20686;-84
2023/01/06 07:50:45;;;;;;;5.87;5.27;;;;;;;;;;4952959;29;20258;-85
2023/01/06 07:53:11;;;;;;;5.50;5.10;;;;;;;;;;4913277;29;20223;-83
2023/01/06 07:55:37;;;;;;;5.33;4.60;;;;;;;;;;4945918;29;20255;-84
2023/01/06 07:58:06;;;;;;;4.67;4.20;;;;;;;;;;4962708;29;20247;-84
2023/01/06 08:00:32;;;;;;;6.23;4.40;;;;;;;;;;4951101;29;20270;-86
2023/01/06 08:02:58;;;;;;;3.73;3.43;;;;;;;;;;4939232;29;20231;-86
2023/01/06 08:05:23;;;;;;;4.67;3.67;;;;;;;;;;4951824;28;20235;-85
2023/01/06 08:07:49;;;;;;;3.83;3.27;;;;;;;;;;4952249;29;20220;-86
2023/01/06 08:10:14;;;;;;;3.80;3.50;;;;;;;;;;4939710;29;20299;-87
2023/01/06 08:12:40;;;;;;;3.17;2.97;;;;;;;;;;4948175;29;20298;-84
2023/01/06 08:15:06;;;;;;;6.37;3.10;;;;;;;;;;4933977;29;20816;-85
2023/01/06 08:17:36;;;;;;;3.63;3.10;;;;;;;;;;4926742;29;20243;-84
2023/01/06 08:20:04;;;;;;;2.50;2.30;;;;;;;;;;4943787;29;20223;-87
2023/01/06 08:22:32;;;;;;;2.93;2.23;;;;;;;;;;4944019;29;20227;-86
2023/01/06 08:25:00;;;;;;;3.47;2.13;;;;;;;;;;4958808;29;20227;-85
2023/01/06 08:27:28;;;;;;;3.13;1.97;;;;;;;;;;4945491;29;20223;-83
2023/01/06 08:29:55;;;;;;;2.57;1.87;;;;;;;;;;4943921;29;20239;-82
2023/01/06 08:32:22;;;;;;;2.20;1.50;;;;;;;;;;4939583;28;20246;-85
2023/01/06 08:34:49;;;;;;;3.97;1.30;;;;;;;;;;4937105;29;20224;-86
2023/01/06 08:37:17;;;;;;;1.50;1.40;;;;;;;;;;4958345;29;20287;-87
2023/01/06 08:39:43;;;;;;;3.87;1.53;;;;;;;;;;4941309;29;20713;-83
2023/01/06 08:42:08;;;;;;;4.00;1.50;;;;;;;;;;4941537;28;20694;-83
2023/01/06 08:44:36;;;;;;;3.77;1.73;;;;;;;;;;4939507;29;20578;-86
2023/01/06 08:47:04;;;;;;;3.27;1.60;;;;;;;;;;4941073;29;20220;-81
2023/01/06 08:49:31;;;;;;;2.07;1.80;;;;;;;;;;4945837;29;20263;-86
2023/01/06 08:51:57;;;;;;;2.80;2.07;;;;;;;;;;4959907;28;20247;-82
2023/01/06 08:54:23;;;;;;;2.10;1.20;;;;;;;;;;4925360;29;20489;-84
2023/01/06 08:56:48;;;;;;;2.10;1.50;;;;;;;;;;4914149;29;20228;-80
2023/01/06 08:59:15;;;;;;;2.87;2.67;;;;;;;;;;4911376;29;20217;-84
2023/01/06 09:01:40;;;;;;;1.97;1.60;;;;;;;;;;4894175;29;20596;-81
2023/01/06 09:04:11;;;;;;;1.93;1.70;;;;;;;;;;4928702;29;20243;-83
2023/01/06 09:06:36;;;;;;;1.60;1.50;;;;;;;;;;4910034;29;20231;-83
2023/01/06 09:09:03;;;;;;;2.90;2.37;;;;;;;;;;4907263;29;20231;-87
2023/01/06 09:11:30;;;;;;;2.80;2.20;;;;;;;;;;4894296;29;20259;-83
2023/01/06 09:13:58;;;;;;;1.57;1.43;;;;;;;;;;4907234;29;20228;-85
2023/01/06 09:16:26;;;;;;;9.67;6.23;;;;;;;;;;4910606;29;20255;-84
2023/01/06 09:18:54;;;;;;;8.17;6.87;;;;;;;;;;4895756;29;20231;-85
2023/01/06 09:21:21;;;;;;;10.53;8.67;;;;;;;;;;4892514;29;20235;-84
2023/01/06 09:23:46;;;;;;;10.77;8.53;;;;;;;;;;4908606;29;20224;-81
2023/01/06 09:26:12;;;;;;;3.57;2.80;;;;;;;;;;4906903;29;20235;-84
2023/01/06 09:28:39;;;;;;;3.70;2.20;;;;;;;;;;4890304;29;20219;-86
2023/01/06 09:31:10;;;;;;;3.33;2.00;;;;;;;;;;4902620;29;20233;-83
2023/01/06 09:33:38;;;;;;;5.17;2.40;;;;;;;;;;4903798;29;20295;-84
2023/01/06 09:36:06;;;;;;;4.37;2.10;;;;;;;;;;4905144;29;20242;-82
2023/01/06 09:38:32;;;;;;;2.20;2.00;;;;;;;;;;4889001;29;20291;-85
2023/01/06 09:41:33;;;;;;;2.30;2.13;;;;;;;;;;4906350;29;20220;-84
2023/01/06 09:44:19;;;;;;;2.43;2.13;;;;;;;;;;4922959;29;20222;-83
2023/01/06 09:46:46;;;;;;;4.07;2.77;;;;;;;;;;4911387;29;20229;-84
2023/01/06 09:49:21;;;;;;;3.00;2.80;;;;;;;;;;4914833;29;20303;-85
2023/01/06 09:51:47;;;;;;;3.30;2.60;;;;;;;;;;4929123;29;20223;-86
2023/01/06 09:54:30;;;;;;;4.83;2.97;;;;;;;;;;4907973;29;20251;-87
2023/01/06 09:57:01;;;;;;;2.97;2.70;;;;;;;;;;4908620;29;20230;-85
2023/01/06 09:59:55;;;;;;;3.37;2.90;;;;;;;;;;4908784;29;20223;-84
2023/01/06 10:02:41;;;;;;;3.27;3.03;;;;;;;;;;4901413;29;20307;-85
2023/01/06 10:05:25;;;;;;;4.10;3.70;;;;;;;;;;4933812;29;20246;-87
2023/01/06 10:08:01;;;;;;;5.37;3.43;;;;;;;;;;4907327;29;20231;-85
2023/01/06 10:10:37;;;;;;;3.90;3.53;;;;;;;;;;4923318;29;20239;-87
2023/01/06 10:13:23;;;;;;;4.07;3.23;;;;;;;;;;4906092;29;20488;-85
2023/01/06 10:16:19;;;;;;;4.43;3.63;;;;;;;;;;4917653;29;20242;-85
2023/01/06 10:18:58;;;;;;;6.73;3.80;;;;;;;;;;4954578;29;20251;-85
2023/01/06 10:22:16;;;;;;;4.20;3.83;;;;;;;;;;4951848;28;20247;-85
2023/01/06 10:24:57;;;;;;;4.30;3.23;;;;;;;;;;4946770;28;20644;-83
2023/01/06 10:27:42;;;;;;;4.70;3.40;;;;;;;;;;4921013;29;21373;-84
2023/01/06 10:30:20;;;;;;;4.20;3.80;;;;;;;;;;4937861;29;20239;-83
2023/01/06 10:32:48;;;;;;;4.07;3.77;;;;;;;;;;4938429;29;20227;-84
2023/01/06 10:35:16;;;;;;;3.83;3.53;;;;;;;;;;4937924;29;20247;-84
2023/01/06 10:37:46;;;;;;;4.20;3.80;;;;;;;;;;4940407;29;20245;-84
2023/01/06 10:40:19;;;;;;;4.60;3.33;;;;;;;;;;4935202;29;20651;-84
2023/01/06 10:43:12;;;;;;;5.37;3.73;;;;;;;;;;4922739;29;20227;-87
2023/01/06 10:45:39;;;;;;;4.43;3.87;;;;;;;;;;4943092;29;20227;-85
2023/01/06 10:48:07;;;;;;;4.67;4.30;;;;;;;;;;4951448;29;20242;-80
2023/01/06 10:50:33;;;;;;;3.70;3.43;;;;;;;;;;4951396;29;20247;-81
2023/01/06 10:52:59;;;;;;;4.00;3.70;;;;;;;;;;4952353;29;20262;-82
2023/01/06 10:55:27;;;;;;;3.97;3.67;;;;;;;;;;4947974;29;20320;-84
2023/01/06 10:57:56;;;;;;;4.07;3.77;;;;;;;;;;4952517;29;20211;-83
2023/01/06 11:00:25;;;;;;;4.40;4.10;;;;;;;;;;4946910;29;20235;-85
2023/01/06 11:03:03;;;;;;;4.27;3.97;;;;;;;;;;4948504;28;20231;-84
2023/01/06 11:05:30;;;;;;;3.70;3.43;;;;;;;;;;4926075;29;20233;-82
2023/01/06 11:08:11;;;;;;;4.20;3.80;;;;;;;;;;4926088;29;20219;-83
2023/01/06 11:10:49;;;;;;;3.77;3.47;;;;;;;;;;4908582;29;20243;-81
2023/01/06 11:13:21;;;;;;;3.97;3.57;;;;;;;;;;4892598;29;20247;-83
2023/01/06 11:15:50;;;;;;;3.20;3.00;;;;;;;;;;4922492;29;20231;-86
2023/01/06 11:18:33;;;;;;;3.33;3.13;;;;;;;;;;4888012;29;20843;-83
2023/01/06 11:21:09;;;;;;;3.20;3.00;;;;;;;;;;4900764;29;20236;-84
2023/01/06 11:23:36;;;;;;;4.33;3.33;;;;;;;;;;4904433;29;20278;-84
2023/01/06 11:26:09;;;;;;;3.47;3.07;;;;;;;;;;4937629;29;20227;-83
2023/01/06 11:28:34;;;;;;;2.00;1.90;;;;;;;;;;4931924;29;20240;-82
2023/01/06 11:31:12;;;;;;;3.10;2.00;;;;;;;;;;4936904;29;20356;-82
2023/01/06 11:33:52;;;;;;;1.97;1.87;;;;;;;;;;4925971;29;20253;-83
2023/01/06 11:36:17;;;;;;;1.87;1.73;;;;;;;;;;4936590;29;20215;-78
2023/01/06 11:38:44;;;;;;;1.90;1.80;;;;;;;;;;4922050;29;20717;-80
2023/01/06 11:41:10;;;;;;;1.80;1.70;;;;;;;;;;4951864;28;20238;-87
2023/01/06 11:43:44;;;;;;;1.80;1.70;;;;;;;;;;4938278;29;20647;-86
2023/01/06 11:46:31;;;;;;;1.80;1.70;;;;;;;;;;4926015;28;20262;-85
2023/01/06 11:49:04;;;;;;;1.80;1.70;;;;;;;;;;4938580;29;20299;-86
2023/01/06 11:51:50;;;;;;;2.40;1.90;;;;;;;;;;4923510;29;20647;-86
2023/01/06 11:54:36;;;;;;;3.60;3.30;;;;;;;;;;4925498;28;20222;-88
2023/01/06 11:57:31;;;;;;;2.33;2.13;;;;;;;;;;4952374;28;20231;-86
2023/01/06 12:00:32;;;;;;;1.70;1.60;;;;;;;;;;4941110;28;20231;-87
2023/01/06 12:03:10;;;;;;;1.43;1.40;;;;;;;;;;4920826;29;20224;-86
2023/01/06 12:05:46;;;;;;;2.43;1.70;;;;;;;;;;4921985;29;20234;-86
2023/01/06 12:08:49;;;;;;;1.63;1.53;;;;;;;;;;4931752;29;20243;-87
2023/01/06 12:11:26;;;;;;;2.03;1.40;;;;;;;;;;4939206;28;20249;-84
2023/01/06 12:13:52;;;;;;;3.23;1.20;;;;;;;;;;4921953;29;20231;-86
2023/01/06 12:16:22;;;;;;;1.77;0.90;;;;;;;;;;4938549;29;20275;-86
2023/01/06 12:18:48;;;;;;;0.80;0.80;;;;;;;;;;4938936;29;20227;-87
2023/01/06 12:21:15;;;;;;;0.73;0.70;;;;;;;;;;4939234;29;20231;-85
2023/01/06 12:23:41;;;;;;;1.03;0.80;;;;;;;;;;4929779;29;20283;-86
2023/01/06 12:26:14;;;;;;;3.07;0.90;;;;;;;;;;4922940;28;20228;-88
2023/01/06 12:28:44;;;;;;;2.03;0.90;;;;;;;;;;4939296;29;20318;-86
2023/01/06 12:31:15;;;;;;;1.20;0.63;;;;;;;;;;4938982;29;20315;-86
2023/01/06 12:33:50;;;;;;;1.30;0.73;;;;;;;;;;4954195;28;20230;-87
2023/01/06 12:36:31;;;;;;;2.07;0.73;;;;;;;;;;4922071;29;20223;-87
2023/01/06 12:39:03;;;;;;;1.43;0.93;;;;;;;;;;4954424;28;20717;-86
2023/01/06 12:41:47;;;;;;;1.43;0.80;;;;;;;;;;4942852;29;20204;-86
2023/01/06 12:44:25;;;;;;;3.13;1.13;;;;;;;;;;4938271;29;20246;-87
2023/01/06 12:46:58;;;;;;;2.30;0.70;;;;;;;;;;4951508;29;20226;-85
2023/01/06 12:49:39;;;;;;;1.70;1.00;;;;;;;;;;4953464;28;20232;-84
2023/01/06 12:52:08;;;;;;;2.10;0.90;;;;;;;;;;4934282;29;20224;-88
2023/01/06 12:54:35;;;;;;;2.27;1.43;;;;;;;;;;4921882;29;20245;-87
2023/01/06 12:57:36;;;;;;;1.53;1.17;;;;;;;;;;4939127;29;20223;-84
2023/01/06 13:00:11;;;;;;;1.40;1.00;;;;;;;;;;4902879;29;20235;-86
2023/01/06 13:03:16;;;;;;;1.97;1.10;;;;;;;;;;4933046;29;20252;-88
2023/01/06 13:06:08;;;;;;;3.87;1.00;;;;;;;;;;4932467;28;20228;-86
2023/01/06 13:09:05;;;;;;;2.03;1.03;;;;;;;;;;4935598;29;20601;-85
2023/01/06 13:11:33;;;;;;;4.27;1.10;;;;;;;;;;4921140;29;20671;-86
2023/01/06 13:14:06;;;;;;;2.83;1.07;;;;;;;;;;4937661;29;20239;-88
2023/01/06 13:16:38;;;;;;;0.90;0.70;;;;;;;;;;4935137;29;20218;-87
2023/01/06 13:19:09;;;;;;;3.80;1.10;;;;;;;;;;4936642;29;20223;-85
2023/01/06 13:21:34;;;;;;;0.87;0.70;;;;;;;;;;4951958;28;20572;-83
2023/01/06 13:24:31;;;;;;;2.53;0.90;;;;;;;;;;4936360;29;20274;-87
2023/01/06 13:27:15;;;;;;;1.63;0.90;;;;;;;;;;4921442;29;20238;-88
2023/01/06 13:29:59;;;;;;;1.37;1.10;;;;;;;;;;4958429;28;20235;-85
2023/01/06 13:32:30;;;;;;;2.80;1.00;;;;;;;;;;4944613;29;20307;-84
2023/01/06 13:35:14;;;;;;;1.70;1.03;;;;;;;;;;4951397;28;20304;-84
2023/01/06 13:37:43;;;;;;;3.13;0.90;;;;;;;;;;4951876;28;20238;-83
2023/01/06 13:40:08;;;;;;;2.07;0.80;;;;;;;;;;4948953;28;20235;-87
2023/01/06 13:42:43;;;;;;;2.63;1.00;;;;;;;;;;4943033;28;20223;-84
2023/01/06 13:45:17;;;;;;;2.93;0.90;;;;;;;;;;4951566;28;20214;-87
2023/01/06 13:47:43;;;;;;;2.97;0.93;;;;;;;;;;4952899;29;20211;-84
2023/01/06 13:50:11;;;;;;;4.43;1.30;;;;;;;;;;4938772;28;20246;-85
2023/01/06 13:52:38;;;;;;;2.40;1.17;;;;;;;;;;4937746;29;20238;-83
2023/01/06 13:55:30;;;;;;;2.73;1.20;;;;;;;;;;4955035;29;20275;-85
2023/01/06 13:57:57;;;;;;;1.93;0.90;;;;;;;;;;4947494;29;20222;-84
2023/01/06 14:00:28;;;;;;;4.17;1.30;;;;;;;;;;4965364;28;20230;-85
2023/01/06 14:02:56;;;;;;;3.20;1.70;;;;;;;;;;4950983;29;20229;-86
2023/01/06 14:05:22;;;;;;;1.90;0.87;;;;;;;;;;4949242;29;20239;-87
2023/01/06 14:08:13;;;;;;;3.40;1.03;;;;;;;;;;4952120;28;20234;-84
2023/01/06 14:10:41;;;;;;;4.00;1.10;;;;;;;;;;4934801;29;20248;-86
2023/01/06 14:13:33;;;;;;;2.77;1.03;;;;;;;;;;4965175;28;20271;-86
2023/01/06 14:16:03;;;;;;;3.10;1.73;;;;;;;;;;4937619;29;20223;-85
2023/01/06 14:18:30;;;;;;;1.73;1.30;;;;;;;;;;4939138;29;20255;-87
2023/01/06 14:21:02;;;;;;;2.97;1.07;;;;;;;;;;4957027;28;20235;-87
2023/01/06 14:23:30;;;;;;;1.87;1.23;;;;;;;;;;4963005;28;20230;-88
2023/01/06 14:25:58;;;;;;;3.00;1.13;;;;;;;;;;4961758;28;20259;-88
2023/01/06 14:28:25;;;;;;;5.80;1.43;;;;;;;;;;4953243;28;20251;-86
2023/01/06 14:31:11;;;;;;;1.20;0.77;;;;;;;;;;4939356;29;20295;-86
2023/01/06 14:33:37;;;;;;;5.80;1.20;;;;;;;;;;4951266;29;20242;-88
2023/01/06 14:36:02;;;;;;;3.33;0.90;;;;;;;;;;4975843;28;20215;-90
2023/01/06 14:38:31;;;;;;;2.07;1.10;;;;;;;;;;4980379;28;20254;-87
2023/01/06 14:40:59;;;;;;;1.57;0.70;;;;;;;;;;4941524;29;20231;-88
2023/01/06 14:43:30;;;;;;;2.97;1.00;;;;;;;;;;4950540;29;20638;-89
2023/01/06 14:46:03;;;;;;;2.03;1.17;;;;;;;;;;4941729;29;20279;-86
2023/01/06 14:48:31;;;;;;;2.83;1.20;;;;;;;;;;4939820;29;20226;-84
2023/01/06 14:50:57;;;;;;;4.20;1.30;;;;;;;;;;4955031;29;20228;-85
2023/01/06 14:53:26;;;;;;;3.40;1.40;;;;;;;;;;4957207;28;20242;-86
2023/01/06 14:55:54;;;;;;;3.93;0.93;;;;;;;;;;4958660;28;20237;-89
2023/01/06 14:58:32;;;;;;;4.40;1.20;;;;;;;;;;4950046;29;20227;-87
2023/01/06 15:00:58;;;;;;;4.20;1.30;;;;;;;;;;4937646;29;20264;-86